sensor_id;sensor_type;location;lat;lon;timestamp;P1;durP1;ratioP1;P2;durP2;ratioP2
781;SDS011;374;52.568;13.402;2023-04-24T00:02:23;6.17;;;5.67;;
781;SDS011;374;52.568;13.402;2023-04-24T00:04:49;5.50;;;5.10;;
781;SDS011;374;52.568;13.402;2023-04-24T00:07:15;6.13;;;5.63;;
781;SDS011;374;52.568;13.402;2023-04-24T00:09:41;6.27;;;5.13;;
781;SDS011;374;52.568;13.402;2023-04-24T00:12:10;5.37;;;4.97;;
781;SDS011;374;52.568;13.402;2023-04-24T00:14:35;5.97;;;5.47;;
781;SDS011;374;52.568;13.402;2023-04-24T00:17:01;5.23;;;4.83;;
781;SDS011;374;52.568;13.402;2023-04-24T00:19:30;6.10;;;5.50;;
781;SDS011;374;52.568;13.402;2023-04-24T00:21:55;6.40;;;5.80;;
781;SDS011;374;52.568;13.402;2023-04-24T00:24:21;5.93;;;5.33;;
781;SDS011;374;52.568;13.402;2023-04-24T00:26:47;7.47;;;6.10;;
781;SDS011;374;52.568;13.402;2023-04-24T00:29:12;8.10;;;6.20;;
781;SDS011;374;52.568;13.402;2023-04-24T00:31:38;6.37;;;5.70;;
781;SDS011;374;52.568;13.402;2023-04-24T00:34:04;6.67;;;6.07;;
781;SDS011;374;52.568;13.402;2023-04-24T00:36:30;6.37;;;5.77;;
781;SDS011;374;52.568;13.402;2023-04-24T00:38:57;6.83;;;5.70;;
781;SDS011;374;52.568;13.402;2023-04-24T00:41:24;6.87;;;6.17;;
781;SDS011;374;52.568;13.402;2023-04-24T00:43:50;6.70;;;6.10;;
781;SDS011;374;52.568;13.402;2023-04-24T00:46:16;6.17;;;5.60;;
781;SDS011;374;52.568;13.402;2023-04-24T00:48:42;6.57;;;5.63;;
781;SDS011;374;52.568;13.402;2023-04-24T00:51:08;7.90;;;6.13;;
781;SDS011;374;52.568;13.402;2023-04-24T00:53:34;6.67;;;6.07;;
781;SDS011;374;52.568;13.402;2023-04-24T00:56:00;6.70;;;6.10;;
781;SDS011;374;52.568;13.402;2023-04-24T00:58:27;7.13;;;6.43;;
781;SDS011;374;52.568;13.402;2023-04-24T01:00:53;7.07;;;6.33;;
781;SDS011;374;52.568;13.402;2023-04-24T01:03:20;5.93;;;5.43;;
781;SDS011;374;52.568;13.402;2023-04-24T01:05:47;6.30;;;5.80;;
781;SDS011;374;52.568;13.402;2023-04-24T01:08:14;6.60;;;6.10;;
781;SDS011;374;52.568;13.402;2023-04-24T01:10:40;7.10;;;6.20;;
781;SDS011;374;52.568;13.402;2023-04-24T01:13:07;6.83;;;6.23;;
781;SDS011;374;52.568;13.402;2023-04-24T01:15:33;6.40;;;5.80;;
781;SDS011;374;52.568;13.402;2023-04-24T01:17:59;8.17;;;6.80;;
781;SDS011;374;52.568;13.402;2023-04-24T01:20:25;7.23;;;6.63;;
781;SDS011;374;52.568;13.402;2023-04-24T01:22:51;6.50;;;5.90;;
781;SDS011;374;52.568;13.402;2023-04-24T01:25:17;5.73;;;5.33;;
781;SDS011;374;52.568;13.402;2023-04-24T01:27:43;6.23;;;5.73;;
781;SDS011;374;52.568;13.402;2023-04-24T01:30:09;6.83;;;6.10;;
781;SDS011;374;52.568;13.402;2023-04-24T01:32:35;6.83;;;6.30;;
781;SDS011;374;52.568;13.402;2023-04-24T01:35:03;6.40;;;5.80;;
781;SDS011;374;52.568;13.402;2023-04-24T01:37:29;6.20;;;5.70;;
781;SDS011;374;52.568;13.402;2023-04-24T01:39:56;6.80;;;5.70;;
781;SDS011;374;52.568;13.402;2023-04-24T01:42:21;6.20;;;5.70;;
781;SDS011;374;52.568;13.402;2023-04-24T01:44:47;6.50;;;5.90;;
781;SDS011;374;52.568;13.402;2023-04-24T01:47:13;6.10;;;5.60;;
781;SDS011;374;52.568;13.402;2023-04-24T01:49:39;6.33;;;5.80;;
781;SDS011;374;52.568;13.402;2023-04-24T01:52:06;6.70;;;6.10;;
781;SDS011;374;52.568;13.402;2023-04-24T01:54:32;7.00;;;6.40;;
781;SDS011;374;52.568;13.402;2023-04-24T01:56:58;6.90;;;6.20;;
781;SDS011;374;52.568;13.402;2023-04-24T01:59:25;7.30;;;6.70;;
781;SDS011;374;52.568;13.402;2023-04-24T02:01:53;6.30;;;5.70;;
781;SDS011;374;52.568;13.402;2023-04-24T02:04:18;6.63;;;6.13;;
781;SDS011;374;52.568;13.402;2023-04-24T02:06:44;7.00;;;6.30;;
781;SDS011;374;52.568;13.402;2023-04-24T02:09:10;6.40;;;5.80;;
781;SDS011;374;52.568;13.402;2023-04-24T02:11:36;7.73;;;7.03;;
781;SDS011;374;52.568;13.402;2023-04-24T02:14:01;6.87;;;6.27;;
781;SDS011;374;52.568;13.402;2023-04-24T02:16:27;6.30;;;5.70;;
781;SDS011;374;52.568;13.402;2023-04-24T02:18:57;7.40;;;6.80;;
781;SDS011;374;52.568;13.402;2023-04-24T02:21:23;7.10;;;6.40;;
781;SDS011;374;52.568;13.402;2023-04-24T02:23:49;8.03;;;7.33;;
781;SDS011;374;52.568;13.402;2023-04-24T02:26:14;7.40;;;6.77;;
781;SDS011;374;52.568;13.402;2023-04-24T02:28:40;7.30;;;6.70;;
781;SDS011;374;52.568;13.402;2023-04-24T02:31:05;7.13;;;6.43;;
781;SDS011;374;52.568;13.402;2023-04-24T02:33:31;7.20;;;6.60;;
781;SDS011;374;52.568;13.402;2023-04-24T02:35:57;7.13;;;6.23;;
781;SDS011;374;52.568;13.402;2023-04-24T02:38:22;8.03;;;7.30;;
781;SDS011;374;52.568;13.402;2023-04-24T02:40:48;7.47;;;6.77;;
781;SDS011;374;52.568;13.402;2023-04-24T02:43:13;8.40;;;7.10;;
781;SDS011;374;52.568;13.402;2023-04-24T02:48:28;6.40;;;5.90;;
781;SDS011;374;52.568;13.402;2023-04-24T02:50:54;8.57;;;7.73;;
781;SDS011;374;52.568;13.402;2023-04-24T02:53:20;8.10;;;7.30;;
781;SDS011;374;52.568;13.402;2023-04-24T02:55:45;8.27;;;7.57;;
781;SDS011;374;52.568;13.402;2023-04-24T02:58:11;7.90;;;7.07;;
781;SDS011;374;52.568;13.402;2023-04-24T03:00:38;8.90;;;8.03;;
781;SDS011;374;52.568;13.402;2023-04-24T03:03:03;7.93;;;7.23;;
781;SDS011;374;52.568;13.402;2023-04-24T03:05:30;8.57;;;7.73;;
781;SDS011;374;52.568;13.402;2023-04-24T03:07:56;9.00;;;7.33;;
781;SDS011;374;52.568;13.402;2023-04-24T03:10:21;7.53;;;6.83;;
781;SDS011;374;52.568;13.402;2023-04-24T03:12:47;7.50;;;6.80;;
781;SDS011;374;52.568;13.402;2023-04-24T03:15:13;8.40;;;7.60;;
781;SDS011;374;52.568;13.402;2023-04-24T03:17:38;9.00;;;8.20;;
781;SDS011;374;52.568;13.402;2023-04-24T03:20:04;7.93;;;7.00;;
781;SDS011;374;52.568;13.402;2023-04-24T03:22:30;7.50;;;6.97;;
781;SDS011;374;52.568;13.402;2023-04-24T03:24:57;7.90;;;7.27;;
781;SDS011;374;52.568;13.402;2023-04-24T03:27:23;7.90;;;7.20;;
781;SDS011;374;52.568;13.402;2023-04-24T03:29:48;8.93;;;8.13;;
781;SDS011;374;52.568;13.402;2023-04-24T03:32:18;6.90;;;6.30;;
781;SDS011;374;52.568;13.402;2023-04-24T03:34:44;8.83;;;8.00;;
781;SDS011;374;52.568;13.402;2023-04-24T03:37:09;9.70;;;6.57;;
781;SDS011;374;52.568;13.402;2023-04-24T03:39:35;10.07;;;6.60;;
781;SDS011;374;52.568;13.402;2023-04-24T03:42:00;8.97;;;8.07;;
781;SDS011;374;52.568;13.402;2023-04-24T03:44:26;8.70;;;8.00;;
781;SDS011;374;52.568;13.402;2023-04-24T03:46:51;7.23;;;6.53;;
781;SDS011;374;52.568;13.402;2023-04-24T03:49:18;9.10;;;7.57;;
781;SDS011;374;52.568;13.402;2023-04-24T03:51:44;8.57;;;7.77;;
781;SDS011;374;52.568;13.402;2023-04-24T03:54:09;8.90;;;8.10;;
781;SDS011;374;52.568;13.402;2023-04-24T03:56:35;11.00;;;7.27;;
781;SDS011;374;52.568;13.402;2023-04-24T03:59:01;7.83;;;7.13;;
781;SDS011;374;52.568;13.402;2023-04-24T04:01:27;7.57;;;6.97;;
781;SDS011;374;52.568;13.402;2023-04-24T04:03:53;7.53;;;6.83;;
781;SDS011;374;52.568;13.402;2023-04-24T04:06:18;8.50;;;7.70;;
781;SDS011;374;52.568;13.402;2023-04-24T04:08:44;7.10;;;6.50;;
781;SDS011;374;52.568;13.402;2023-04-24T04:11:09;7.90;;;7.20;;
781;SDS011;374;52.568;13.402;2023-04-24T04:13:35;7.67;;;6.97;;
781;SDS011;374;52.568;13.402;2023-04-24T04:16:00;9.03;;;7.50;;
781;SDS011;374;52.568;13.402;2023-04-24T04:18:26;7.87;;;7.17;;
781;SDS011;374;52.568;13.402;2023-04-24T04:20:51;8.43;;;7.60;;
781;SDS011;374;52.568;13.402;2023-04-24T04:23:17;8.50;;;7.20;;
781;SDS011;374;52.568;13.402;2023-04-24T04:25:42;9.70;;;7.50;;
781;SDS011;374;52.568;13.402;2023-04-24T04:28:08;8.50;;;7.60;;
781;SDS011;374;52.568;13.402;2023-04-24T04:30:33;7.63;;;6.97;;
781;SDS011;374;52.568;13.402;2023-04-24T04:32:59;8.50;;;7.67;;
781;SDS011;374;52.568;13.402;2023-04-24T04:35:25;7.67;;;6.97;;
781;SDS011;374;52.568;13.402;2023-04-24T04:37:50;7.90;;;7.20;;
781;SDS011;374;52.568;13.402;2023-04-24T04:40:16;6.80;;;6.20;;
781;SDS011;374;52.568;13.402;2023-04-24T04:42:42;8.37;;;7.57;;
781;SDS011;374;52.568;13.402;2023-04-24T04:45:10;6.90;;;6.30;;
781;SDS011;374;52.568;13.402;2023-04-24T04:47:37;6.37;;;5.77;;
781;SDS011;374;52.568;13.402;2023-04-24T04:50:02;7.10;;;6.50;;
781;SDS011;374;52.568;13.402;2023-04-24T04:52:29;8.70;;;7.07;;
781;SDS011;374;52.568;13.402;2023-04-24T04:54:54;6.30;;;5.70;;
781;SDS011;374;52.568;13.402;2023-04-24T04:57:20;7.20;;;6.50;;
781;SDS011;374;52.568;13.402;2023-04-24T04:59:46;6.43;;;5.80;;
781;SDS011;374;52.568;13.402;2023-04-24T05:02:11;8.07;;;6.60;;
781;SDS011;374;52.568;13.402;2023-04-24T05:04:37;6.67;;;6.07;;
781;SDS011;374;52.568;13.402;2023-04-24T05:07:03;6.90;;;6.30;;
781;SDS011;374;52.568;13.402;2023-04-24T05:09:29;6.10;;;5.50;;
781;SDS011;374;52.568;13.402;2023-04-24T05:11:54;6.00;;;5.50;;
781;SDS011;374;52.568;13.402;2023-04-24T05:14:21;6.70;;;6.10;;
781;SDS011;374;52.568;13.402;2023-04-24T05:16:46;6.27;;;5.67;;
781;SDS011;374;52.568;13.402;2023-04-24T05:19:12;5.50;;;5.00;;
781;SDS011;374;52.568;13.402;2023-04-24T05:21:38;6.20;;;5.60;;
781;SDS011;374;52.568;13.402;2023-04-24T05:24:05;5.47;;;4.93;;
781;SDS011;374;52.568;13.402;2023-04-24T05:26:31;7.17;;;5.67;;
781;SDS011;374;52.568;13.402;2023-04-24T05:28:56;5.60;;;5.10;;
781;SDS011;374;52.568;13.402;2023-04-24T05:31:22;5.83;;;4.77;;
781;SDS011;374;52.568;13.402;2023-04-24T05:33:47;6.30;;;5.80;;
781;SDS011;374;52.568;13.402;2023-04-24T05:36:13;6.97;;;5.50;;
781;SDS011;374;52.568;13.402;2023-04-24T05:38:38;4.80;;;4.40;;
781;SDS011;374;52.568;13.402;2023-04-24T05:41:04;6.83;;;6.23;;
781;SDS011;374;52.568;13.402;2023-04-24T05:43:30;6.27;;;5.67;;
781;SDS011;374;52.568;13.402;2023-04-24T05:45:55;4.97;;;4.60;;
781;SDS011;374;52.568;13.402;2023-04-24T05:48:21;5.10;;;4.63;;
781;SDS011;374;52.568;13.402;2023-04-24T05:50:47;5.40;;;3.60;;
781;SDS011;374;52.568;13.402;2023-04-24T05:53:13;4.90;;;4.50;;
781;SDS011;374;52.568;13.402;2023-04-24T05:55:39;4.80;;;4.40;;
781;SDS011;374;52.568;13.402;2023-04-24T05:58:04;5.10;;;3.90;;
781;SDS011;374;52.568;13.402;2023-04-24T06:00:30;4.63;;;4.23;;
781;SDS011;374;52.568;13.402;2023-04-24T06:02:56;4.10;;;3.70;;
781;SDS011;374;52.568;13.402;2023-04-24T06:05:22;4.63;;;4.23;;
781;SDS011;374;52.568;13.402;2023-04-24T06:07:49;4.73;;;4.33;;
781;SDS011;374;52.568;13.402;2023-04-24T06:10:14;4.50;;;4.10;;
781;SDS011;374;52.568;13.402;2023-04-24T06:12:40;4.70;;;4.30;;
781;SDS011;374;52.568;13.402;2023-04-24T06:15:06;5.13;;;4.07;;
781;SDS011;374;52.568;13.402;2023-04-24T06:17:32;4.57;;;3.37;;
781;SDS011;374;52.568;13.402;2023-04-24T06:19:58;4.67;;;4.13;;
781;SDS011;374;52.568;13.402;2023-04-24T06:22:23;4.00;;;3.20;;
781;SDS011;374;52.568;13.402;2023-04-24T06:24:49;3.70;;;3.40;;
781;SDS011;374;52.568;13.402;2023-04-24T06:27:14;4.30;;;3.70;;
781;SDS011;374;52.568;13.402;2023-04-24T06:29:40;3.80;;;3.50;;
781;SDS011;374;52.568;13.402;2023-04-24T06:32:05;4.00;;;3.60;;
781;SDS011;374;52.568;13.402;2023-04-24T06:34:31;3.97;;;3.63;;
781;SDS011;374;52.568;13.402;2023-04-24T06:36:58;2.97;;;2.77;;
781;SDS011;374;52.568;13.402;2023-04-24T06:39:24;3.33;;;3.03;;
781;SDS011;374;52.568;13.402;2023-04-24T06:41:49;3.40;;;3.10;;
781;SDS011;374;52.568;13.402;2023-04-24T06:44:15;3.20;;;2.90;;
781;SDS011;374;52.568;13.402;2023-04-24T06:46:41;2.77;;;2.50;;
781;SDS011;374;52.568;13.402;2023-04-24T06:49:07;3.37;;;2.93;;
781;SDS011;374;52.568;13.402;2023-04-24T06:51:32;2.67;;;2.47;;
781;SDS011;374;52.568;13.402;2023-04-24T06:53:58;3.27;;;2.73;;
781;SDS011;374;52.568;13.402;2023-04-24T06:56:24;4.50;;;2.20;;
781;SDS011;374;52.568;13.402;2023-04-24T06:58:50;3.10;;;2.80;;
781;SDS011;374;52.568;13.402;2023-04-24T07:01:16;2.23;;;2.10;;
781;SDS011;374;52.568;13.402;2023-04-24T07:03:42;2.70;;;2.37;;
781;SDS011;374;52.568;13.402;2023-04-24T07:06:09;2.70;;;2.33;;
781;SDS011;374;52.568;13.402;2023-04-24T07:08:38;2.93;;;2.20;;
781;SDS011;374;52.568;13.402;2023-04-24T07:11:03;2.17;;;1.97;;
781;SDS011;374;52.568;13.402;2023-04-24T07:13:29;5.30;;;2.17;;
781;SDS011;374;52.568;13.402;2023-04-24T07:15:55;1.90;;;1.80;;
781;SDS011;374;52.568;13.402;2023-04-24T07:18:21;2.43;;;2.23;;
781;SDS011;374;52.568;13.402;2023-04-24T07:20:47;2.70;;;1.83;;
781;SDS011;374;52.568;13.402;2023-04-24T07:23:12;2.03;;;1.60;;
781;SDS011;374;52.568;13.402;2023-04-24T07:25:38;2.47;;;1.87;;
781;SDS011;374;52.568;13.402;2023-04-24T07:28:04;2.10;;;1.87;;
781;SDS011;374;52.568;13.402;2023-04-24T07:30:30;2.30;;;2.10;;
781;SDS011;374;52.568;13.402;2023-04-24T07:32:57;1.53;;;1.43;;
781;SDS011;374;52.568;13.402;2023-04-24T07:35:23;2.10;;;1.93;;
781;SDS011;374;52.568;13.402;2023-04-24T07:37:50;4.03;;;3.67;;
781;SDS011;374;52.568;13.402;2023-04-24T07:40:17;3.33;;;3.07;;
781;SDS011;374;52.568;13.402;2023-04-24T07:42:43;1.77;;;1.60;;
781;SDS011;374;52.568;13.402;2023-04-24T07:45:09;2.73;;;1.70;;
781;SDS011;374;52.568;13.402;2023-04-24T07:47:34;2.30;;;1.90;;
781;SDS011;374;52.568;13.402;2023-04-24T07:50:02;2.30;;;1.80;;
781;SDS011;374;52.568;13.402;2023-04-24T07:52:28;2.40;;;1.80;;
781;SDS011;374;52.568;13.402;2023-04-24T07:54:54;2.70;;;2.17;;
781;SDS011;374;52.568;13.402;2023-04-24T07:57:23;1.60;;;1.50;;
781;SDS011;374;52.568;13.402;2023-04-24T07:59:49;1.63;;;1.40;;
781;SDS011;374;52.568;13.402;2023-04-24T08:02:15;1.47;;;1.37;;
781;SDS011;374;52.568;13.402;2023-04-24T08:04:40;1.47;;;1.37;;
781;SDS011;374;52.568;13.402;2023-04-24T08:07:06;1.20;;;1.20;;
781;SDS011;374;52.568;13.402;2023-04-24T08:09:31;1.00;;;1.00;;
781;SDS011;374;52.568;13.402;2023-04-24T08:11:57;2.53;;;1.97;;
781;SDS011;374;52.568;13.402;2023-04-24T08:14:22;1.53;;;1.20;;
781;SDS011;374;52.568;13.402;2023-04-24T08:16:48;2.53;;;1.33;;
781;SDS011;374;52.568;13.402;2023-04-24T08:19:13;1.57;;;1.47;;
781;SDS011;374;52.568;13.402;2023-04-24T08:21:39;1.20;;;1.10;;
781;SDS011;374;52.568;13.402;2023-04-24T08:24:04;3.30;;;1.60;;
781;SDS011;374;52.568;13.402;2023-04-24T08:26:32;1.60;;;1.50;;
781;SDS011;374;52.568;13.402;2023-04-24T08:28:58;0.97;;;0.90;;
781;SDS011;374;52.568;13.402;2023-04-24T08:31:23;1.20;;;1.10;;
781;SDS011;374;52.568;13.402;2023-04-24T08:33:50;1.20;;;1.10;;
781;SDS011;374;52.568;13.402;2023-04-24T08:36:15;3.70;;;3.50;;
781;SDS011;374;52.568;13.402;2023-04-24T08:38:41;4.30;;;3.90;;
781;SDS011;374;52.568;13.402;2023-04-24T08:41:07;1.60;;;1.50;;
781;SDS011;374;52.568;13.402;2023-04-24T08:43:34;1.40;;;1.30;;
781;SDS011;374;52.568;13.402;2023-04-24T08:46:01;1.90;;;1.00;;
781;SDS011;374;52.568;13.402;2023-04-24T08:48:28;1.60;;;1.27;;
781;SDS011;374;52.568;13.402;2023-04-24T08:50:55;1.30;;;1.20;;
781;SDS011;374;52.568;13.402;2023-04-24T08:53:22;1.90;;;1.23;;
781;SDS011;374;52.568;13.402;2023-04-24T08:55:54;1.63;;;1.43;;
781;SDS011;374;52.568;13.402;2023-04-24T08:58:27;1.40;;;1.30;;
781;SDS011;374;52.568;13.402;2023-04-24T09:00:56;1.57;;;1.13;;
781;SDS011;374;52.568;13.402;2023-04-24T09:06:28;4.63;;;1.17;;
781;SDS011;374;52.568;13.402;2023-04-24T09:08:59;1.73;;;1.30;;
781;SDS011;374;52.568;13.402;2023-04-24T09:12:05;0.90;;;0.90;;
781;SDS011;374;52.568;13.402;2023-04-24T09:17:39;2.07;;;0.90;;
781;SDS011;374;52.568;13.402;2023-04-24T09:20:16;1.77;;;1.10;;
781;SDS011;374;52.568;13.402;2023-04-24T09:22:54;2.80;;;1.53;;
781;SDS011;374;52.568;13.402;2023-04-24T09:25:34;1.30;;;1.20;;
781;SDS011;374;52.568;13.402;2023-04-24T09:28:06;1.10;;;1.10;;
781;SDS011;374;52.568;13.402;2023-04-24T09:30:32;1.37;;;1.27;;
781;SDS011;374;52.568;13.402;2023-04-24T09:33:16;1.47;;;1.27;;
781;SDS011;374;52.568;13.402;2023-04-24T09:36:10;2.43;;;1.80;;
781;SDS011;374;52.568;13.402;2023-04-24T09:38:42;1.67;;;1.57;;
781;SDS011;374;52.568;13.402;2023-04-24T09:41:08;1.43;;;1.33;;
781;SDS011;374;52.568;13.402;2023-04-24T09:43:38;1.70;;;1.60;;
781;SDS011;374;52.568;13.402;2023-04-24T09:46:05;2.27;;;1.20;;
781;SDS011;374;52.568;13.402;2023-04-24T09:48:35;2.00;;;1.10;;
781;SDS011;374;52.568;13.402;2023-04-24T09:51:02;2.20;;;1.57;;
781;SDS011;374;52.568;13.402;2023-04-24T09:53:31;1.90;;;1.50;;
781;SDS011;374;52.568;13.402;2023-04-24T09:56:07;2.50;;;1.30;;
781;SDS011;374;52.568;13.402;2023-04-24T09:58:34;1.73;;;1.60;;
781;SDS011;374;52.568;13.402;2023-04-24T10:01:21;1.63;;;1.53;;
781;SDS011;374;52.568;13.402;2023-04-24T10:04:03;2.60;;;1.43;;
781;SDS011;374;52.568;13.402;2023-04-24T10:06:35;2.20;;;2.00;;
781;SDS011;374;52.568;13.402;2023-04-24T10:09:01;4.23;;;2.80;;
781;SDS011;374;52.568;13.402;2023-04-24T10:20:50;1.50;;;1.40;;
781;SDS011;374;52.568;13.402;2023-04-24T10:23:47;3.43;;;1.40;;
781;SDS011;374;52.568;13.402;2023-04-24T10:26:16;3.00;;;1.47;;
781;SDS011;374;52.568;13.402;2023-04-24T10:28:46;1.50;;;1.30;;
781;SDS011;374;52.568;13.402;2023-04-24T10:31:26;2.20;;;2.00;;
781;SDS011;374;52.568;13.402;2023-04-24T10:34:24;1.87;;;1.70;;
781;SDS011;374;52.568;13.402;2023-04-24T10:41:18;1.50;;;1.40;;
781;SDS011;374;52.568;13.402;2023-04-24T10:46:40;2.07;;;1.20;;
781;SDS011;374;52.568;13.402;2023-04-24T10:49:11;1.47;;;1.37;;
781;SDS011;374;52.568;13.402;2023-04-24T10:51:48;2.80;;;1.50;;
781;SDS011;374;52.568;13.402;2023-04-24T10:54:24;2.13;;;2.03;;
781;SDS011;374;52.568;13.402;2023-04-24T10:57:35;1.83;;;1.10;;
781;SDS011;374;52.568;13.402;2023-04-24T11:11:16;1.93;;;1.10;;
781;SDS011;374;52.568;13.402;2023-04-24T11:14:21;2.63;;;1.60;;
781;SDS011;374;52.568;13.402;2023-04-24T11:16:55;1.80;;;1.23;;
781;SDS011;374;52.568;13.402;2023-04-24T11:19:26;1.70;;;1.60;;
781;SDS011;374;52.568;13.402;2023-04-24T11:22:11;1.97;;;1.40;;
781;SDS011;374;52.568;13.402;2023-04-24T11:24:49;1.47;;;1.30;;
781;SDS011;374;52.568;13.402;2023-04-24T11:27:18;1.80;;;1.70;;
781;SDS011;374;52.568;13.402;2023-04-24T11:40:40;2.77;;;1.70;;
781;SDS011;374;52.568;13.402;2023-04-24T11:46:31;2.00;;;1.90;;
781;SDS011;374;52.568;13.402;2023-04-24T11:48:57;2.83;;;2.67;;
781;SDS011;374;52.568;13.402;2023-04-24T11:51:29;5.93;;;2.60;;
781;SDS011;374;52.568;13.402;2023-04-24T11:53:58;9.67;;;3.80;;
781;SDS011;374;52.568;13.402;2023-04-24T11:56:27;5.50;;;2.93;;
781;SDS011;374;52.568;13.402;2023-04-24T11:58:52;3.33;;;3.13;;
781;SDS011;374;52.568;13.402;2023-04-24T12:01:19;2.10;;;2.00;;
781;SDS011;374;52.568;13.402;2023-04-24T12:03:58;1.70;;;1.60;;
781;SDS011;374;52.568;13.402;2023-04-24T12:06:27;2.00;;;1.77;;
781;SDS011;374;52.568;13.402;2023-04-24T12:08:56;1.83;;;1.70;;
781;SDS011;374;52.568;13.402;2023-04-24T12:11:24;1.90;;;1.70;;
781;SDS011;374;52.568;13.402;2023-04-24T12:13:50;2.03;;;1.70;;
781;SDS011;374;52.568;13.402;2023-04-24T12:16:30;2.00;;;1.90;;
781;SDS011;374;52.568;13.402;2023-04-24T12:19:01;2.13;;;1.97;;
781;SDS011;374;52.568;13.402;2023-04-24T12:21:31;2.40;;;1.70;;
781;SDS011;374;52.568;13.402;2023-04-24T12:23:57;2.10;;;2.00;;
781;SDS011;374;52.568;13.402;2023-04-24T12:26:45;3.20;;;2.00;;
781;SDS011;374;52.568;13.402;2023-04-24T12:29:25;2.80;;;1.93;;
781;SDS011;374;52.568;13.402;2023-04-24T12:31:53;2.23;;;2.03;;
781;SDS011;374;52.568;13.402;2023-04-24T12:34:27;5.43;;;2.40;;
781;SDS011;374;52.568;13.402;2023-04-24T12:37:10;5.80;;;1.70;;
781;SDS011;374;52.568;13.402;2023-04-24T12:39:36;6.00;;;3.17;;
781;SDS011;374;52.568;13.402;2023-04-24T12:42:05;2.97;;;1.80;;
781;SDS011;374;52.568;13.402;2023-04-24T12:44:33;8.27;;;3.33;;
781;SDS011;374;52.568;13.402;2023-04-24T12:47:09;7.87;;;2.20;;
781;SDS011;374;52.568;13.402;2023-04-24T12:49:59;8.43;;;2.07;;
781;SDS011;374;52.568;13.402;2023-04-24T12:52:39;7.40;;;1.90;;
781;SDS011;374;52.568;13.402;2023-04-24T12:55:36;4.07;;;1.37;;
781;SDS011;374;52.568;13.402;2023-04-24T12:58:14;1.43;;;1.33;;
781;SDS011;374;52.568;13.402;2023-04-24T13:00:51;1.77;;;1.67;;
781;SDS011;374;52.568;13.402;2023-04-24T13:03:17;2.03;;;1.90;;
781;SDS011;374;52.568;13.402;2023-04-24T13:05:49;1.30;;;1.20;;
781;SDS011;374;52.568;13.402;2023-04-24T13:08:23;2.67;;;1.50;;
781;SDS011;374;52.568;13.402;2023-04-24T13:13:49;3.93;;;2.33;;
781;SDS011;374;52.568;13.402;2023-04-24T13:16:37;3.43;;;1.90;;
781;SDS011;374;52.568;13.402;2023-04-24T13:19:16;3.80;;;1.93;;
781;SDS011;374;52.568;13.402;2023-04-24T13:21:48;1.63;;;1.53;;
781;SDS011;374;52.568;13.402;2023-04-24T13:24:14;2.87;;;1.80;;
781;SDS011;374;52.568;13.402;2023-04-24T13:26:43;3.70;;;1.80;;
781;SDS011;374;52.568;13.402;2023-04-24T13:29:14;4.13;;;1.70;;
781;SDS011;374;52.568;13.402;2023-04-24T13:31:45;2.00;;;1.90;;
781;SDS011;374;52.568;13.402;2023-04-24T13:37:09;1.97;;;1.70;;
781;SDS011;374;52.568;13.402;2023-04-24T13:39:34;2.43;;;2.23;;
781;SDS011;374;52.568;13.402;2023-04-24T13:42:08;3.67;;;1.73;;
781;SDS011;374;52.568;13.402;2023-04-24T13:44:37;1.90;;;1.80;;
781;SDS011;374;52.568;13.402;2023-04-24T13:47:05;2.40;;;2.20;;
781;SDS011;374;52.568;13.402;2023-04-24T13:49:31;3.00;;;2.00;;
781;SDS011;374;52.568;13.402;2023-04-24T13:52:06;1.63;;;1.53;;
781;SDS011;374;52.568;13.402;2023-04-24T13:54:37;2.10;;;1.77;;
781;SDS011;374;52.568;13.402;2023-04-24T13:57:11;1.70;;;1.60;;
781;SDS011;374;52.568;13.402;2023-04-24T13:59:44;2.07;;;1.97;;
781;SDS011;374;52.568;13.402;2023-04-24T14:02:25;1.77;;;1.67;;
781;SDS011;374;52.568;13.402;2023-04-24T14:04:54;2.10;;;1.83;;
781;SDS011;374;52.568;13.402;2023-04-24T14:07:20;3.10;;;2.10;;
781;SDS011;374;52.568;13.402;2023-04-24T14:09:49;1.93;;;1.77;;
781;SDS011;374;52.568;13.402;2023-04-24T14:12:15;2.27;;;2.07;;
781;SDS011;374;52.568;13.402;2023-04-24T14:14:50;2.17;;;1.60;;
781;SDS011;374;52.568;13.402;2023-04-24T14:17:19;2.30;;;2.10;;
781;SDS011;374;52.568;13.402;2023-04-24T14:19:45;2.67;;;2.40;;
781;SDS011;374;52.568;13.402;2023-04-24T14:22:13;2.17;;;1.80;;
781;SDS011;374;52.568;13.402;2023-04-24T14:24:39;2.93;;;2.17;;
781;SDS011;374;52.568;13.402;2023-04-24T14:27:08;4.93;;;1.80;;
781;SDS011;374;52.568;13.402;2023-04-24T14:29:39;6.90;;;1.90;;
781;SDS011;374;52.568;13.402;2023-04-24T14:32:07;1.47;;;1.33;;
781;SDS011;374;52.568;13.402;2023-04-24T14:34:36;2.37;;;1.57;;
781;SDS011;374;52.568;13.402;2023-04-24T14:37:04;1.60;;;1.50;;
781;SDS011;374;52.568;13.402;2023-04-24T14:39:31;1.60;;;1.50;;
781;SDS011;374;52.568;13.402;2023-04-24T14:41:57;1.77;;;1.67;;
781;SDS011;374;52.568;13.402;2023-04-24T14:44:31;1.70;;;1.60;;
781;SDS011;374;52.568;13.402;2023-04-24T14:46:57;1.63;;;1.27;;
781;SDS011;374;52.568;13.402;2023-04-24T14:49:23;3.33;;;1.80;;
781;SDS011;374;52.568;13.402;2023-04-24T14:51:49;1.80;;;1.70;;
781;SDS011;374;52.568;13.402;2023-04-24T14:54:17;2.00;;;1.90;;
781;SDS011;374;52.568;13.402;2023-04-24T14:56:50;1.70;;;1.60;;
781;SDS011;374;52.568;13.402;2023-04-24T14:59:16;1.53;;;1.43;;
781;SDS011;374;52.568;13.402;2023-04-24T15:01:42;2.10;;;2.00;;
781;SDS011;374;52.568;13.402;2023-04-24T15:04:11;2.00;;;1.90;;
781;SDS011;374;52.568;13.402;2023-04-24T15:06:36;2.20;;;1.93;;
781;SDS011;374;52.568;13.402;2023-04-24T15:09:05;2.23;;;1.43;;
781;SDS011;374;52.568;13.402;2023-04-24T15:11:31;1.77;;;1.67;;
781;SDS011;374;52.568;13.402;2023-04-24T15:13:59;2.00;;;1.90;;
781;SDS011;374;52.568;13.402;2023-04-24T15:16:28;1.80;;;1.70;;
781;SDS011;374;52.568;13.402;2023-04-24T15:18:57;2.20;;;2.00;;
781;SDS011;374;52.568;13.402;2023-04-24T15:21:31;1.77;;;1.67;;
781;SDS011;374;52.568;13.402;2023-04-24T15:24:16;2.07;;;1.60;;
781;SDS011;374;52.568;13.402;2023-04-24T15:27:08;1.97;;;1.77;;
781;SDS011;374;52.568;13.402;2023-04-24T15:29:43;2.90;;;2.17;;
781;SDS011;374;52.568;13.402;2023-04-24T15:32:13;3.20;;;2.17;;
781;SDS011;374;52.568;13.402;2023-04-24T15:34:45;1.80;;;1.70;;
781;SDS011;374;52.568;13.402;2023-04-24T15:37:16;2.47;;;2.00;;
781;SDS011;374;52.568;13.402;2023-04-24T15:40:11;2.30;;;1.70;;
781;SDS011;374;52.568;13.402;2023-04-24T15:42:38;1.80;;;1.70;;
781;SDS011;374;52.568;13.402;2023-04-24T15:45:05;2.93;;;2.20;;
781;SDS011;374;52.568;13.402;2023-04-24T15:47:31;3.10;;;1.90;;
781;SDS011;374;52.568;13.402;2023-04-24T15:49:57;2.00;;;1.90;;
781;SDS011;374;52.568;13.402;2023-04-24T15:52:23;2.00;;;1.87;;
781;SDS011;374;52.568;13.402;2023-04-24T15:54:48;1.73;;;1.63;;
781;SDS011;374;52.568;13.402;2023-04-24T15:57:14;3.33;;;1.80;;
781;SDS011;374;52.568;13.402;2023-04-24T15:59:39;1.97;;;1.87;;
781;SDS011;374;52.568;13.402;2023-04-24T16:02:08;2.00;;;1.90;;
781;SDS011;374;52.568;13.402;2023-04-24T16:04:38;2.17;;;1.50;;
781;SDS011;374;52.568;13.402;2023-04-24T16:07:04;3.20;;;2.23;;
781;SDS011;374;52.568;13.402;2023-04-24T16:09:32;3.10;;;1.90;;
781;SDS011;374;52.568;13.402;2023-04-24T16:11:57;2.50;;;2.37;;
781;SDS011;374;52.568;13.402;2023-04-24T16:14:23;1.63;;;1.50;;
781;SDS011;374;52.568;13.402;2023-04-24T16:16:49;1.93;;;1.83;;
781;SDS011;374;52.568;13.402;2023-04-24T16:19:15;1.70;;;1.60;;
781;SDS011;374;52.568;13.402;2023-04-24T16:21:43;2.10;;;2.00;;
781;SDS011;374;52.568;13.402;2023-04-24T16:24:09;2.30;;;2.10;;
781;SDS011;374;52.568;13.402;2023-04-24T16:26:35;1.80;;;1.70;;
781;SDS011;374;52.568;13.402;2023-04-24T16:29:01;2.30;;;2.10;;
781;SDS011;374;52.568;13.402;2023-04-24T16:31:29;5.03;;;4.17;;
781;SDS011;374;52.568;13.402;2023-04-24T16:33:55;2.00;;;1.90;;
781;SDS011;374;52.568;13.402;2023-04-24T16:36:30;2.20;;;2.00;;